sensor_id;sensor_type;location;lat;lon;timestamp;P1;durP1;ratioP1;P2;durP2;ratioP2
44925;SDS011;30662;51.210;7.656;2022-10-22T00:00:36;12.88;;;3.53;;
44925;SDS011;30662;51.210;7.656;2022-10-22T00:03:02;7.38;;;3.33;;
44925;SDS011;30662;51.210;7.656;2022-10-22T00:05:28;10.05;;;3.42;;
44925;SDS011;30662;51.210;7.656;2022-10-22T00:07:54;8.52;;;3.50;;
44925;SDS011;30662;51.210;7.656;2022-10-22T00:10:20;8.38;;;3.42;;
44925;SDS011;30662;51.210;7.656;2022-10-22T00:12:46;8.82;;;3.22;;
44925;SDS011;30662;51.210;7.656;2022-10-22T00:15:12;8.23;;;3.85;;
44925;SDS011;30662;51.210;7.656;2022-10-22T00:17:37;8.75;;;3.67;;
44925;SDS011;30662;51.210;7.656;2022-10-22T00:20:04;8.55;;;3.70;;
44925;SDS011;30662;51.210;7.656;2022-10-22T00:22:31;9.07;;;3.67;;
44925;SDS011;30662;51.210;7.656;2022-10-22T00:24:56;12.18;;;4.68;;
44925;SDS011;30662;51.210;7.656;2022-10-22T00:27:22;12.85;;;3.67;;
44925;SDS011;30662;51.210;7.656;2022-10-22T00:29:48;12.32;;;3.45;;
44925;SDS011;30662;51.210;7.656;2022-10-22T00:32:14;8.05;;;3.28;;
44925;SDS011;30662;51.210;7.656;2022-10-22T00:34:40;13.35;;;3.33;;
44925;SDS011;30662;51.210;7.656;2022-10-22T00:37:05;7.70;;;3.38;;
44925;SDS011;30662;51.210;7.656;2022-10-22T00:39:31;10.65;;;2.80;;
44925;SDS011;30662;51.210;7.656;2022-10-22T00:41:57;7.15;;;2.58;;
44925;SDS011;30662;51.210;7.656;2022-10-22T00:47:27;5.88;;;2.65;;
44925;SDS011;30662;51.210;7.656;2022-10-22T00:50:01;5.55;;;3.15;;
44925;SDS011;30662;51.210;7.656;2022-10-22T00:52:34;11.25;;;3.30;;
44925;SDS011;30662;51.210;7.656;2022-10-22T00:55:01;10.98;;;2.97;;
44925;SDS011;30662;51.210;7.656;2022-10-22T00:57:27;15.57;;;3.72;;
44925;SDS011;30662;51.210;7.656;2022-10-22T00:59:53;8.10;;;3.35;;
44925;SDS011;30662;51.210;7.656;2022-10-22T01:02:21;10.05;;;3.20;;
44925;SDS011;30662;51.210;7.656;2022-10-22T01:04:48;4.90;;;2.78;;
44925;SDS011;30662;51.210;7.656;2022-10-22T01:07:15;9.23;;;3.53;;
44925;SDS011;30662;51.210;7.656;2022-10-22T01:09:49;5.28;;;3.10;;
44925;SDS011;30662;51.210;7.656;2022-10-22T01:12:37;9.45;;;2.90;;
44925;SDS011;30662;51.210;7.656;2022-10-22T01:15:43;12.23;;;3.00;;
44925;SDS011;30662;51.210;7.656;2022-10-22T01:18:20;8.00;;;3.30;;
44925;SDS011;30662;51.210;7.656;2022-10-22T01:21:02;10.25;;;3.53;;
44925;SDS011;30662;51.210;7.656;2022-10-22T01:30:02;13.48;;;4.25;;
44925;SDS011;30662;51.210;7.656;2022-10-22T01:32:51;9.90;;;3.60;;
44925;SDS011;30662;51.210;7.656;2022-10-22T01:35:22;7.80;;;4.13;;
44925;SDS011;30662;51.210;7.656;2022-10-22T01:37:55;9.27;;;4.13;;
44925;SDS011;30662;51.210;7.656;2022-10-22T01:40:24;10.88;;;3.60;;
44925;SDS011;30662;51.210;7.656;2022-10-22T01:42:59;7.00;;;3.50;;
44925;SDS011;30662;51.210;7.656;2022-10-22T01:45:28;10.25;;;3.38;;
44925;SDS011;30662;51.210;7.656;2022-10-22T01:53:22;10.32;;;3.67;;
44925;SDS011;30662;51.210;7.656;2022-10-22T01:58:28;7.18;;;3.80;;
44925;SDS011;30662;51.210;7.656;2022-10-22T02:01:12;6.97;;;3.47;;
44925;SDS011;30662;51.210;7.656;2022-10-22T02:06:55;10.77;;;3.33;;
44925;SDS011;30662;51.210;7.656;2022-10-22T02:09:24;7.78;;;3.13;;
44925;SDS011;30662;51.210;7.656;2022-10-22T02:11:52;9.35;;;3.20;;
44925;SDS011;30662;51.210;7.656;2022-10-22T02:14:20;10.15;;;3.00;;
44925;SDS011;30662;51.210;7.656;2022-10-22T02:16:47;10.65;;;3.53;;
44925;SDS011;30662;51.210;7.656;2022-10-22T02:21:50;6.82;;;3.22;;
44925;SDS011;30662;51.210;7.656;2022-10-22T02:24:17;7.90;;;3.45;;
44925;SDS011;30662;51.210;7.656;2022-10-22T02:29:36;10.52;;;3.58;;
44925;SDS011;30662;51.210;7.656;2022-10-22T02:32:06;6.22;;;2.85;;
44925;SDS011;30662;51.210;7.656;2022-10-22T02:34:35;11.77;;;2.83;;
44925;SDS011;30662;51.210;7.656;2022-10-22T02:37:02;5.75;;;3.17;;
44925;SDS011;30662;51.210;7.656;2022-10-22T02:39:29;8.13;;;3.38;;
44925;SDS011;30662;51.210;7.656;2022-10-22T02:41:56;9.82;;;3.60;;
44925;SDS011;30662;51.210;7.656;2022-10-22T02:44:23;8.13;;;3.55;;
44925;SDS011;30662;51.210;7.656;2022-10-22T02:46:49;12.15;;;3.90;;
44925;SDS011;30662;51.210;7.656;2022-10-22T02:49:16;8.00;;;3.22;;
44925;SDS011;30662;51.210;7.656;2022-10-22T02:51:42;8.20;;;4.00;;
44925;SDS011;30662;51.210;7.656;2022-10-22T02:54:08;13.57;;;3.83;;
44925;SDS011;30662;51.210;7.656;2022-10-22T02:56:33;7.35;;;4.65;;
44925;SDS011;30662;51.210;7.656;2022-10-22T02:58:59;14.75;;;4.85;;
44925;SDS011;30662;51.210;7.656;2022-10-22T03:01:25;9.23;;;4.55;;
44925;SDS011;30662;51.210;7.656;2022-10-22T03:03:51;14.02;;;6.32;;
44925;SDS011;30662;51.210;7.656;2022-10-22T03:06:17;7.43;;;4.97;;
44925;SDS011;30662;51.210;7.656;2022-10-22T03:08:43;9.80;;;5.60;;
44925;SDS011;30662;51.210;7.656;2022-10-22T03:11:09;10.23;;;6.05;;
44925;SDS011;30662;51.210;7.656;2022-10-22T03:13:35;14.27;;;6.13;;
44925;SDS011;30662;51.210;7.656;2022-10-22T03:16:00;9.95;;;7.50;;
44925;SDS011;30662;51.210;7.656;2022-10-22T03:18:26;17.05;;;9.93;;
44925;SDS011;30662;51.210;7.656;2022-10-22T03:21:07;12.70;;;9.27;;
44925;SDS011;30662;51.210;7.656;2022-10-22T03:23:38;11.13;;;10.00;;
44925;SDS011;30662;51.210;7.656;2022-10-22T03:26:07;16.70;;;10.30;;
44925;SDS011;30662;51.210;7.656;2022-10-22T03:28:34;14.68;;;10.90;;
44925;SDS011;30662;51.210;7.656;2022-10-22T03:31:01;16.95;;;11.18;;
44925;SDS011;30662;51.210;7.656;2022-10-22T03:33:27;19.25;;;12.63;;
44925;SDS011;30662;51.210;7.656;2022-10-22T03:35:53;17.27;;;11.95;;
44925;SDS011;30662;51.210;7.656;2022-10-22T03:38:18;19.00;;;13.45;;
44925;SDS011;30662;51.210;7.656;2022-10-22T03:40:44;16.50;;;12.60;;
44925;SDS011;30662;51.210;7.656;2022-10-22T03:43:11;14.98;;;12.38;;
44925;SDS011;30662;51.210;7.656;2022-10-22T03:45:37;19.33;;;13.30;;
44925;SDS011;30662;51.210;7.656;2022-10-22T03:48:08;17.23;;;12.43;;
44925;SDS011;30662;51.210;7.656;2022-10-22T03:50:34;16.67;;;12.05;;
44925;SDS011;30662;51.210;7.656;2022-10-22T03:53:00;16.60;;;12.35;;
44925;SDS011;30662;51.210;7.656;2022-10-22T03:55:26;18.20;;;11.82;;
44925;SDS011;30662;51.210;7.656;2022-10-22T03:57:52;17.15;;;12.27;;
44925;SDS011;30662;51.210;7.656;2022-10-22T04:00:17;18.15;;;12.32;;
44925;SDS011;30662;51.210;7.656;2022-10-22T04:02:43;17.40;;;13.63;;
44925;SDS011;30662;51.210;7.656;2022-10-22T04:05:09;16.45;;;12.57;;
44925;SDS011;30662;51.210;7.656;2022-10-22T04:07:37;21.65;;;13.82;;
44925;SDS011;30662;51.210;7.656;2022-10-22T04:10:03;13.70;;;12.02;;
44925;SDS011;30662;51.210;7.656;2022-10-22T04:12:29;20.83;;;13.55;;
44925;SDS011;30662;51.210;7.656;2022-10-22T04:14:55;15.98;;;12.95;;
44925;SDS011;30662;51.210;7.656;2022-10-22T04:17:21;16.70;;;11.88;;
44925;SDS011;30662;51.210;7.656;2022-10-22T04:19:47;16.63;;;12.00;;
44925;SDS011;30662;51.210;7.656;2022-10-22T04:22:13;19.95;;;12.48;;
44925;SDS011;30662;51.210;7.656;2022-10-22T04:24:38;16.58;;;12.27;;
44925;SDS011;30662;51.210;7.656;2022-10-22T04:27:04;21.63;;;12.38;;
44925;SDS011;30662;51.210;7.656;2022-10-22T04:29:30;15.18;;;12.88;;
44925;SDS011;30662;51.210;7.656;2022-10-22T04:31:56;22.08;;;13.30;;
44925;SDS011;30662;51.210;7.656;2022-10-22T04:34:25;19.42;;;11.60;;
44925;SDS011;30662;51.210;7.656;2022-10-22T04:36:51;20.38;;;13.40;;
44925;SDS011;30662;51.210;7.656;2022-10-22T04:39:17;18.08;;;12.35;;
44925;SDS011;30662;51.210;7.656;2022-10-22T04:41:43;17.27;;;11.70;;
44925;SDS011;30662;51.210;7.656;2022-10-22T04:44:09;17.33;;;11.93;;
44925;SDS011;30662;51.210;7.656;2022-10-22T04:46:41;18.23;;;12.95;;
44925;SDS011;30662;51.210;7.656;2022-10-22T04:49:07;25.20;;;13.15;;
44925;SDS011;30662;51.210;7.656;2022-10-22T04:51:34;17.40;;;12.02;;
44925;SDS011;30662;51.210;7.656;2022-10-22T04:54:00;19.05;;;12.70;;
44925;SDS011;30662;51.210;7.656;2022-10-22T04:56:27;19.17;;;11.70;;
44925;SDS011;30662;51.210;7.656;2022-10-22T04:58:59;15.55;;;11.60;;
44925;SDS011;30662;51.210;7.656;2022-10-22T05:01:30;15.02;;;10.90;;
44925;SDS011;30662;51.210;7.656;2022-10-22T05:04:00;17.95;;;12.00;;
44925;SDS011;30662;51.210;7.656;2022-10-22T05:06:27;16.05;;;11.45;;
44925;SDS011;30662;51.210;7.656;2022-10-22T05:08:55;19.17;;;10.25;;
44925;SDS011;30662;51.210;7.656;2022-10-22T05:11:24;18.92;;;10.43;;
44925;SDS011;30662;51.210;7.656;2022-10-22T05:13:54;13.85;;;9.63;;
44925;SDS011;30662;51.210;7.656;2022-10-22T05:16:23;30.15;;;12.13;;
44925;SDS011;30662;51.210;7.656;2022-10-22T05:18:50;16.98;;;10.65;;
44925;SDS011;30662;51.210;7.656;2022-10-22T05:21:17;22.23;;;12.77;;
44925;SDS011;30662;51.210;7.656;2022-10-22T05:23:45;13.70;;;10.85;;
44925;SDS011;30662;51.210;7.656;2022-10-22T05:26:13;15.60;;;9.95;;
44925;SDS011;30662;51.210;7.656;2022-10-22T05:28:40;20.85;;;10.10;;
44925;SDS011;30662;51.210;7.656;2022-10-22T05:31:07;20.40;;;10.13;;
44925;SDS011;30662;51.210;7.656;2022-10-22T05:33:35;17.45;;;9.63;;
44925;SDS011;30662;51.210;7.656;2022-10-22T05:36:01;13.30;;;8.75;;
44925;SDS011;30662;51.210;7.656;2022-10-22T05:38:28;15.55;;;9.77;;
44925;SDS011;30662;51.210;7.656;2022-10-22T05:40:58;15.85;;;9.00;;
44925;SDS011;30662;51.210;7.656;2022-10-22T05:43:29;24.77;;;10.18;;
44925;SDS011;30662;51.210;7.656;2022-10-22T05:45:55;11.75;;;8.38;;
44925;SDS011;30662;51.210;7.656;2022-10-22T05:48:25;17.40;;;8.98;;
44925;SDS011;30662;51.210;7.656;2022-10-22T05:50:51;12.27;;;8.75;;
44925;SDS011;30662;51.210;7.656;2022-10-22T05:53:17;14.82;;;8.18;;
44925;SDS011;30662;51.210;7.656;2022-10-22T05:55:43;14.43;;;8.63;;
44925;SDS011;30662;51.210;7.656;2022-10-22T05:58:12;13.93;;;8.00;;
44925;SDS011;30662;51.210;7.656;2022-10-22T06:00:38;12.02;;;8.35;;
44925;SDS011;30662;51.210;7.656;2022-10-22T06:03:04;14.32;;;8.68;;
44925;SDS011;30662;51.210;7.656;2022-10-22T06:05:33;12.15;;;8.48;;
44925;SDS011;30662;51.210;7.656;2022-10-22T06:08:00;12.63;;;7.78;;
44925;SDS011;30662;51.210;7.656;2022-10-22T06:10:26;15.30;;;8.00;;
44925;SDS011;30662;51.210;7.656;2022-10-22T06:12:52;13.95;;;7.97;;
44925;SDS011;30662;51.210;7.656;2022-10-22T06:15:18;18.80;;;7.90;;
44925;SDS011;30662;51.210;7.656;2022-10-22T06:17:45;16.42;;;8.07;;
44925;SDS011;30662;51.210;7.656;2022-10-22T06:20:12;11.40;;;7.78;;
44925;SDS011;30662;51.210;7.656;2022-10-22T06:22:39;15.52;;;8.68;;
44925;SDS011;30662;51.210;7.656;2022-10-22T06:25:05;15.30;;;7.93;;
44925;SDS011;30662;51.210;7.656;2022-10-22T06:27:33;15.35;;;8.80;;
44925;SDS011;30662;51.210;7.656;2022-10-22T06:29:59;21.88;;;11.55;;
44925;SDS011;30662;51.210;7.656;2022-10-22T06:32:25;14.57;;;7.82;;
44925;SDS011;30662;51.210;7.656;2022-10-22T06:34:51;13.98;;;8.45;;
44925;SDS011;30662;51.210;7.656;2022-10-22T06:37:17;12.60;;;8.73;;
44925;SDS011;30662;51.210;7.656;2022-10-22T06:39:43;11.77;;;8.02;;
44925;SDS011;30662;51.210;7.656;2022-10-22T06:42:09;16.52;;;9.30;;
44925;SDS011;30662;51.210;7.656;2022-10-22T06:44:34;15.23;;;8.98;;
44925;SDS011;30662;51.210;7.656;2022-10-22T06:47:00;11.63;;;7.70;;
44925;SDS011;30662;51.210;7.656;2022-10-22T06:49:26;15.50;;;9.05;;
44925;SDS011;30662;51.210;7.656;2022-10-22T06:51:52;24.77;;;8.50;;
44925;SDS011;30662;51.210;7.656;2022-10-22T06:54:18;11.48;;;7.88;;
44925;SDS011;30662;51.210;7.656;2022-10-22T06:56:45;15.70;;;8.00;;
44925;SDS011;30662;51.210;7.656;2022-10-22T06:59:11;16.65;;;7.18;;
44925;SDS011;30662;51.210;7.656;2022-10-22T07:01:37;8.95;;;7.25;;
44925;SDS011;30662;51.210;7.656;2022-10-22T07:04:03;10.27;;;6.97;;
44925;SDS011;30662;51.210;7.656;2022-10-22T07:06:30;15.73;;;9.55;;
44925;SDS011;30662;51.210;7.656;2022-10-22T07:08:57;8.80;;;6.07;;
44925;SDS011;30662;51.210;7.656;2022-10-22T07:11:25;15.00;;;6.93;;
44925;SDS011;30662;51.210;7.656;2022-10-22T07:13:53;10.13;;;6.57;;
44925;SDS011;30662;51.210;7.656;2022-10-22T07:16:21;17.40;;;6.85;;
44925;SDS011;30662;51.210;7.656;2022-10-22T07:18:47;13.85;;;6.60;;
44925;SDS011;30662;51.210;7.656;2022-10-22T07:21:14;12.07;;;6.18;;
44925;SDS011;30662;51.210;7.656;2022-10-22T07:23:42;12.88;;;6.38;;
44925;SDS011;30662;51.210;7.656;2022-10-22T07:26:10;9.30;;;6.55;;
44925;SDS011;30662;51.210;7.656;2022-10-22T07:28:40;9.30;;;5.85;;
44925;SDS011;30662;51.210;7.656;2022-10-22T07:31:08;14.95;;;6.75;;
44925;SDS011;30662;51.210;7.656;2022-10-22T07:33:35;11.18;;;6.60;;
44925;SDS011;30662;51.210;7.656;2022-10-22T07:36:02;12.65;;;6.18;;
44925;SDS011;30662;51.210;7.656;2022-10-22T07:38:30;14.38;;;5.97;;
44925;SDS011;30662;51.210;7.656;2022-10-22T07:40:57;13.52;;;6.70;;
44925;SDS011;30662;51.210;7.656;2022-10-22T07:43:24;10.02;;;5.70;;
44925;SDS011;30662;51.210;7.656;2022-10-22T07:45:50;14.07;;;5.80;;
44925;SDS011;30662;51.210;7.656;2022-10-22T07:48:15;16.63;;;6.47;;
44925;SDS011;30662;51.210;7.656;2022-10-22T07:50:42;11.35;;;5.28;;
44925;SDS011;30662;51.210;7.656;2022-10-22T07:53:13;7.13;;;5.22;;
44925;SDS011;30662;51.210;7.656;2022-10-22T07:55:39;8.52;;;4.90;;
44925;SDS011;30662;51.210;7.656;2022-10-22T07:58:04;8.65;;;5.00;;
44925;SDS011;30662;51.210;7.656;2022-10-22T08:00:30;14.07;;;5.18;;
44925;SDS011;30662;51.210;7.656;2022-10-22T08:02:56;9.05;;;5.25;;
44925;SDS011;30662;51.210;7.656;2022-10-22T08:05:22;7.93;;;4.88;;
44925;SDS011;30662;51.210;7.656;2022-10-22T08:07:48;14.43;;;5.07;;
44925;SDS011;30662;51.210;7.656;2022-10-22T08:10:14;9.48;;;4.60;;
44925;SDS011;30662;51.210;7.656;2022-10-22T08:12:40;10.40;;;4.95;;
44925;SDS011;30662;51.210;7.656;2022-10-22T08:15:06;12.80;;;5.30;;
44925;SDS011;30662;51.210;7.656;2022-10-22T08:17:32;9.82;;;4.75;;
44925;SDS011;30662;51.210;7.656;2022-10-22T08:19:58;8.10;;;4.53;;
44925;SDS011;30662;51.210;7.656;2022-10-22T08:22:24;6.60;;;4.57;;
44925;SDS011;30662;51.210;7.656;2022-10-22T08:24:50;10.32;;;3.95;;
44925;SDS011;30662;51.210;7.656;2022-10-22T08:27:16;8.68;;;4.03;;
44925;SDS011;30662;51.210;7.656;2022-10-22T08:29:42;11.20;;;3.72;;
44925;SDS011;30662;51.210;7.656;2022-10-22T08:32:07;7.25;;;3.75;;
44925;SDS011;30662;51.210;7.656;2022-10-22T08:34:33;10.93;;;3.80;;
44925;SDS011;30662;51.210;7.656;2022-10-22T08:36:59;7.88;;;3.40;;
44925;SDS011;30662;51.210;7.656;2022-10-22T08:39:25;13.05;;;3.55;;
44925;SDS011;30662;51.210;7.656;2022-10-22T08:50:41;6.15;;;3.13;;
44925;SDS011;30662;51.210;7.656;2022-10-22T08:53:12;9.98;;;3.20;;
44925;SDS011;30662;51.210;7.656;2022-10-22T08:55:41;11.93;;;2.90;;
44925;SDS011;30662;51.210;7.656;2022-10-22T09:00:46;11.80;;;2.70;;
44925;SDS011;30662;51.210;7.656;2022-10-22T09:03:33;14.07;;;2.95;;
44925;SDS011;30662;51.210;7.656;2022-10-22T09:06:17;8.60;;;3.30;;
44925;SDS011;30662;51.210;7.656;2022-10-22T09:08:47;7.35;;;2.85;;
44925;SDS011;30662;51.210;7.656;2022-10-22T09:11:24;10.07;;;3.40;;
44925;SDS011;30662;51.210;7.656;2022-10-22T09:13:57;14.98;;;3.03;;
44925;SDS011;30662;51.210;7.656;2022-10-22T09:16:36;11.90;;;3.00;;
44925;SDS011;30662;51.210;7.656;2022-10-22T09:19:24;8.63;;;2.90;;
44925;SDS011;30662;51.210;7.656;2022-10-22T09:24:36;12.98;;;3.25;;
44925;SDS011;30662;51.210;7.656;2022-10-22T09:27:36;7.95;;;3.28;;
44925;SDS011;30662;51.210;7.656;2022-10-22T09:29:56;12.65;;;4.55;;
44925;SDS011;30662;51.210;7.656;2022-10-22T09:32:22;11.60;;;3.38;;
44925;SDS011;30662;51.210;7.656;2022-10-22T09:34:48;5.63;;;2.88;;
44925;SDS011;30662;51.210;7.656;2022-10-22T09:37:19;7.00;;;2.85;;
44925;SDS011;30662;51.210;7.656;2022-10-22T09:39:51;14.65;;;3.75;;
44925;SDS011;30662;51.210;7.656;2022-10-22T09:42:18;9.75;;;3.78;;
44925;SDS011;30662;51.210;7.656;2022-10-22T09:44:55;13.90;;;2.88;;
44925;SDS011;30662;51.210;7.656;2022-10-22T09:50:19;13.60;;;2.92;;
44925;SDS011;30662;51.210;7.656;2022-10-22T09:52:56;9.60;;;3.03;;
44925;SDS011;30662;51.210;7.656;2022-10-22T09:55:30;9.05;;;2.72;;
44925;SDS011;30662;51.210;7.656;2022-10-22T09:57:57;10.18;;;2.22;;
44925;SDS011;30662;51.210;7.656;2022-10-22T10:00:25;16.02;;;2.92;;
44925;SDS011;30662;51.210;7.656;2022-10-22T10:02:55;10.75;;;2.20;;
44925;SDS011;30662;51.210;7.656;2022-10-22T10:05:30;6.78;;;2.42;;
44925;SDS011;30662;51.210;7.656;2022-10-22T10:07:58;8.07;;;2.00;;
44925;SDS011;30662;51.210;7.656;2022-10-22T10:10:32;7.20;;;2.83;;
44925;SDS011;30662;51.210;7.656;2022-10-22T10:13:10;6.22;;;2.03;;
44925;SDS011;30662;51.210;7.656;2022-10-22T10:16:02;10.52;;;2.03;;
44925;SDS011;30662;51.210;7.656;2022-10-22T10:26:56;12.38;;;2.63;;
44925;SDS011;30662;51.210;7.656;2022-10-22T10:34:55;7.22;;;1.92;;
44925;SDS011;30662;51.210;7.656;2022-10-22T10:37:24;22.75;;;2.40;;
44925;SDS011;30662;51.210;7.656;2022-10-22T10:43:08;12.32;;;2.00;;
44925;SDS011;30662;51.210;7.656;2022-10-22T10:54:14;6.03;;;1.90;;
44925;SDS011;30662;51.210;7.656;2022-10-22T10:56:57;5.85;;;2.10;;
44925;SDS011;30662;51.210;7.656;2022-10-22T11:02:14;9.15;;;2.00;;
44925;SDS011;30662;51.210;7.656;2022-10-22T11:04:56;15.70;;;2.15;;
44925;SDS011;30662;51.210;7.656;2022-10-22T11:07:40;9.32;;;2.30;;
44925;SDS011;30662;51.210;7.656;2022-10-22T11:10:27;11.35;;;2.15;;
44925;SDS011;30662;51.210;7.656;2022-10-22T11:16:31;11.60;;;1.58;;
44925;SDS011;30662;51.210;7.656;2022-10-22T11:22:10;5.70;;;1.67;;
44925;SDS011;30662;51.210;7.656;2022-10-22T11:25:13;5.60;;;1.52;;
44925;SDS011;30662;51.210;7.656;2022-10-22T11:30:13;9.48;;;2.17;;
44925;SDS011;30662;51.210;7.656;2022-10-22T11:32:41;9.20;;;1.90;;
44925;SDS011;30662;51.210;7.656;2022-10-22T11:35:11;8.60;;;2.05;;
44925;SDS011;30662;51.210;7.656;2022-10-22T11:37:41;7.10;;;1.92;;
44925;SDS011;30662;51.210;7.656;2022-10-22T11:40:13;11.48;;;2.05;;
44925;SDS011;30662;51.210;7.656;2022-10-22T11:55:45;14.02;;;1.70;;
44925;SDS011;30662;51.210;7.656;2022-10-22T11:58:26;4.78;;;1.48;;
44925;SDS011;30662;51.210;7.656;2022-10-22T12:03:40;12.85;;;2.15;;
44925;SDS011;30662;51.210;7.656;2022-10-22T12:08:44;9.32;;;2.50;;
44925;SDS011;30662;51.210;7.656;2022-10-22T12:11:16;9.80;;;2.35;;
44925;SDS011;30662;51.210;7.656;2022-10-22T12:13:53;8.38;;;2.20;;
44925;SDS011;30662;51.210;7.656;2022-10-22T12:21:47;7.47;;;2.47;;
44925;SDS011;30662;51.210;7.656;2022-10-22T12:24:19;8.80;;;1.92;;
44925;SDS011;30662;51.210;7.656;2022-10-22T12:26:46;7.93;;;2.45;;
44925;SDS011;30662;51.210;7.656;2022-10-22T12:29:17;5.75;;;2.03;;
44925;SDS011;30662;51.210;7.656;2022-10-22T12:31:47;7.45;;;3.10;;
44925;SDS011;30662;51.210;7.656;2022-10-22T12:34:14;6.68;;;2.47;;
44925;SDS011;30662;51.210;7.656;2022-10-22T12:36:42;8.10;;;2.42;;
44925;SDS011;30662;51.210;7.656;2022-10-22T12:39:13;11.45;;;2.40;;
44925;SDS011;30662;51.210;7.656;2022-10-22T12:41:41;5.40;;;2.05;;
44925;SDS011;30662;51.210;7.656;2022-10-22T12:44:10;5.70;;;2.60;;
44925;SDS011;30662;51.210;7.656;2022-10-22T12:46:39;11.35;;;2.53;;
44925;SDS011;30662;51.210;7.656;2022-10-22T12:49:07;4.63;;;2.10;;
44925;SDS011;30662;51.210;7.656;2022-10-22T12:51:38;10.18;;;2.28;;
44925;SDS011;30662;51.210;7.656;2022-10-22T12:54:08;9.32;;;1.88;;
44925;SDS011;30662;51.210;7.656;2022-10-22T12:56:47;10.57;;;1.70;;
44925;SDS011;30662;51.210;7.656;2022-10-22T13:01:40;6.78;;;1.52;;
44925;SDS011;30662;51.210;7.656;2022-10-22T13:07:12;3.20;;;1.40;;
44925;SDS011;30662;51.210;7.656;2022-10-22T13:12:27;5.28;;;1.30;;
44925;SDS011;30662;51.210;7.656;2022-10-22T13:15:17;3.92;;;1.30;;
44925;SDS011;30662;51.210;7.656;2022-10-22T13:17:44;2.97;;;1.50;;
44925;SDS011;30662;51.210;7.656;2022-10-22T13:20:17;5.78;;;1.13;;
44925;SDS011;30662;51.210;7.656;2022-10-22T13:22:57;7.23;;;1.20;;
44925;SDS011;30662;51.210;7.656;2022-10-22T13:25:26;8.73;;;1.60;;
44925;SDS011;30662;51.210;7.656;2022-10-22T13:27:58;3.50;;;0.80;;
44925;SDS011;30662;51.210;7.656;2022-10-22T13:30:30;6.10;;;1.40;;
44925;SDS011;30662;51.210;7.656;2022-10-22T13:32:58;7.07;;;1.55;;
44925;SDS011;30662;51.210;7.656;2022-10-22T13:35:27;6.28;;;1.45;;
44925;SDS011;30662;51.210;7.656;2022-10-22T13:37:56;4.05;;;1.67;;
44925;SDS011;30662;51.210;7.656;2022-10-22T13:40:22;5.82;;;1.23;;
44925;SDS011;30662;51.210;7.656;2022-10-22T13:42:48;8.23;;;1.83;;
44925;SDS011;30662;51.210;7.656;2022-10-22T13:45:14;4.07;;;0.88;;
44925;SDS011;30662;51.210;7.656;2022-10-22T13:47:40;3.47;;;1.30;;
44925;SDS011;30662;51.210;7.656;2022-10-22T13:50:13;8.95;;;1.33;;
44925;SDS011;30662;51.210;7.656;2022-10-22T13:52:53;4.53;;;1.35;;
44925;SDS011;30662;51.210;7.656;2022-10-22T13:55:22;11.93;;;1.30;;
44925;SDS011;30662;51.210;7.656;2022-10-22T13:57:50;4.93;;;0.90;;
44925;SDS011;30662;51.210;7.656;2022-10-22T14:00:18;3.80;;;1.10;;
44925;SDS011;30662;51.210;7.656;2022-10-22T14:02:46;3.28;;;0.70;;
44925;SDS011;30662;51.210;7.656;2022-10-22T14:05:15;3.78;;;0.95;;
44925;SDS011;30662;51.210;7.656;2022-10-22T14:07:42;4.95;;;1.17;;
44925;SDS011;30662;51.210;7.656;2022-10-22T14:10:14;5.05;;;1.40;;
44925;SDS011;30662;51.210;7.656;2022-10-22T14:12:44;3.95;;;0.77;;
44925;SDS011;30662;51.210;7.656;2022-10-22T14:15:16;5.10;;;1.08;;
44925;SDS011;30662;51.210;7.656;2022-10-22T14:17:48;6.97;;;0.90;;
44925;SDS011;30662;51.210;7.656;2022-10-22T14:20:17;4.60;;;1.05;;
44925;SDS011;30662;51.210;7.656;2022-10-22T14:22:47;6.88;;;1.20;;
44925;SDS011;30662;51.210;7.656;2022-10-22T14:25:17;7.20;;;1.00;;
44925;SDS011;30662;51.210;7.656;2022-10-22T14:27:48;6.05;;;1.20;;
44925;SDS011;30662;51.210;7.656;2022-10-22T14:30:15;4.25;;;0.90;;
44925;SDS011;30662;51.210;7.656;2022-10-22T14:32:43;4.15;;;1.17;;
44925;SDS011;30662;51.210;7.656;2022-10-22T14:35:11;4.32;;;1.00;;
44925;SDS011;30662;51.210;7.656;2022-10-22T14:37:38;3.83;;;1.00;;
44925;SDS011;30662;51.210;7.656;2022-10-22T14:40:05;6.80;;;0.90;;
44925;SDS011;30662;51.210;7.656;2022-10-22T14:42:32;3.80;;;0.98;;
44925;SDS011;30662;51.210;7.656;2022-10-22T14:45:05;3.08;;;0.73;;
44925;SDS011;30662;51.210;7.656;2022-10-22T14:47:32;5.97;;;1.00;;
44925;SDS011;30662;51.210;7.656;2022-10-22T14:49:58;3.70;;;0.80;;
44925;SDS011;30662;51.210;7.656;2022-10-22T14:52:26;6.32;;;1.25;;
44925;SDS011;30662;51.210;7.656;2022-10-22T14:54:52;5.55;;;1.10;;
44925;SDS011;30662;51.210;7.656;2022-10-22T14:57:18;8.25;;;2.88;;
44925;SDS011;30662;51.210;7.656;2022-10-22T14:59:43;6.88;;;2.05;;
44925;SDS011;30662;51.210;7.656;2022-10-22T15:02:11;5.85;;;1.40;;
44925;SDS011;30662;51.210;7.656;2022-10-22T15:04:38;7.30;;;0.88;;
44925;SDS011;30662;51.210;7.656;2022-10-22T15:07:07;6.38;;;1.15;;
44925;SDS011;30662;51.210;7.656;2022-10-22T15:09:33;4.53;;;1.00;;
44925;SDS011;30662;51.210;7.656;2022-10-22T15:11:59;3.05;;;0.80;;
44925;SDS011;30662;51.210;7.656;2022-10-22T15:14:25;7.65;;;0.98;;
44925;SDS011;30662;51.210;7.656;2022-10-22T15:16:51;3.22;;;1.30;;
44925;SDS011;30662;51.210;7.656;2022-10-22T15:19:17;6.97;;;1.13;;
44925;SDS011;30662;51.210;7.656;2022-10-22T15:21:42;9.23;;;1.05;;
44925;SDS011;30662;51.210;7.656;2022-10-22T15:24:08;4.85;;;0.85;;
44925;SDS011;30662;51.210;7.656;2022-10-22T15:26:34;3.67;;;0.82;;
44925;SDS011;30662;51.210;7.656;2022-10-22T15:29:01;2.78;;;1.05;;
44925;SDS011;30662;51.210;7.656;2022-10-22T15:31:48;6.45;;;1.80;;
44925;SDS011;30662;51.210;7.656;2022-10-22T15:34:22;10.02;;;1.02;;
44925;SDS011;30662;51.210;7.656;2022-10-22T15:36:56;8.60;;;0.95;;
44925;SDS011;30662;51.210;7.656;2022-10-22T15:39:24;7.88;;;1.30;;
44925;SDS011;30662;51.210;7.656;2022-10-22T15:41:50;6.03;;;1.25;;
44925;SDS011;30662;51.210;7.656;2022-10-22T15:44:21;5.25;;;2.45;;
44925;SDS011;30662;51.210;7.656;2022-10-22T15:46:49;8.70;;;1.50;;
44925;SDS011;30662;51.210;7.656;2022-10-22T15:49:21;5.97;;;1.70;;
44925;SDS011;30662;51.210;7.656;2022-10-22T15:51:48;10.85;;;2.20;;
44925;SDS011;30662;51.210;7.656;2022-10-22T15:54:19;4.85;;;1.77;;
44925;SDS011;30662;51.210;7.656;2022-10-22T15:56:48;4.53;;;1.80;;
44925;SDS011;30662;51.210;7.656;2022-10-22T15:59:15;4.30;;;1.02;;
44925;SDS011;30662;51.210;7.656;2022-10-22T16:01:42;5.53;;;1.33;;
44925;SDS011;30662;51.210;7.656;2022-10-22T16:04:08;7.63;;;1.20;;
44925;SDS011;30662;51.210;7.656;2022-10-22T16:09:04;7.57;;;1.20;;
44925;SDS011;30662;51.210;7.656;2022-10-22T16:11:32;7.85;;;1.90;;
44925;SDS011;30662;51.210;7.656;2022-10-22T16:13:58;6.82;;;1.20;;
44925;SDS011;30662;51.210;7.656;2022-10-22T16:16:25;5.45;;;1.77;;
44925;SDS011;30662;51.210;7.656;2022-10-22T16:18:54;8.77;;;1.80;;
44925;SDS011;30662;51.210;7.656;2022-10-22T16:21:20;6.97;;;1.90;;
44925;SDS011;30662;51.210;7.656;2022-10-22T16:23:47;14.90;;;2.63;;
44925;SDS011;30662;51.210;7.656;2022-10-22T16:26:14;4.97;;;2.63;;
44925;SDS011;30662;51.210;7.656;2022-10-22T16:28:40;5.70;;;2.30;;
44925;SDS011;30662;51.210;7.656;2022-10-22T16:31:07;9.65;;;2.38;;
44925;SDS011;30662;51.210;7.656;2022-10-22T16:33:35;14.32;;;3.08;;
44925;SDS011;30662;51.210;7.656;2022-10-22T16:36:10;7.72;;;3.10;;
44925;SDS011;30662;51.210;7.656;2022-10-22T16:38:37;17.70;;;3.10;;
44925;SDS011;30662;51.210;7.656;2022-10-22T16:41:07;9.43;;;2.90;;
44925;SDS011;30662;51.210;7.656;2022-10-22T16:43:39;9.65;;;2.92;;